createdAt,value
2017-07-17T00:00:28.167Z,16.67
2017-07-17T00:01:37.017Z,16.73
2017-07-17T00:02:45.871Z,16.73
2017-07-17T00:03:54.873Z,16.66
2017-07-17T00:05:03.728Z,16.7
2017-07-17T00:06:12.951Z,16.67
2017-07-17T00:07:21.806Z,16.68
2017-07-17T00:08:30.657Z,16.6
2017-07-17T00:09:39.812Z,16.56
2017-07-17T00:10:48.665Z,16.56
2017-07-17T00:11:57.521Z,16.67
2017-07-17T00:13:06.373Z,16.56
2017-07-17T00:14:15.229Z,16.57
2017-07-17T00:15:24.234Z,16.58
2017-07-17T00:16:33.089Z,16.61
2017-07-17T00:17:41.947Z,16.63
2017-07-17T00:18:50.805Z,16.61
2017-07-17T00:19:59.659Z,16.49
2017-07-17T00:21:08.813Z,16.5
2017-07-17T00:22:17.666Z,16.5
2017-07-17T00:23:26.519Z,16.53
2017-07-17T00:24:35.373Z,16.5
2017-07-17T00:25:44.228Z,16.56
2017-07-17T00:26:53.234Z,16.45
2017-07-17T00:28:02.097Z,16.56
2017-07-17T00:29:10.947Z,16.42
2017-07-17T00:30:19.803Z,16.45
2017-07-17T00:31:28.991Z,16.43
2017-07-17T00:32:37.997Z,16.45
2017-07-17T00:33:46.850Z,16.49
2017-07-17T00:34:56.038Z,16.5
2017-07-17T00:36:04.890Z,16.48
2017-07-17T00:37:13.745Z,16.39
2017-07-17T00:38:22.749Z,16.46
2017-07-17T00:39:31.603Z,16.43
2017-07-17T00:40:40.459Z,16.43
2017-07-17T00:41:49.313Z,16.46
2017-07-17T00:42:58.165Z,16.49
2017-07-17T00:44:07.022Z,16.38
2017-07-17T00:45:15.876Z,16.46
2017-07-17T00:46:24.732Z,16.49
2017-07-17T00:47:33.586Z,16.39
2017-07-17T00:48:42.441Z,16.43
2017-07-17T00:49:51.295Z,16.45
2017-07-17T00:51:00.147Z,16.41
2017-07-17T00:52:09.002Z,16.48
2017-07-17T00:53:17.858Z,16.48
2017-07-17T00:54:26.712Z,16.39
2017-07-17T00:55:35.565Z,16.41
2017-07-17T00:56:44.421Z,16.42
2017-07-17T00:57:53.279Z,16.33
2017-07-17T00:59:02.132Z,16.35
2017-07-17T01:00:10.984Z,16.42
2017-07-17T01:01:20.138Z,16.38
2017-07-17T01:02:28.992Z,16.35
2017-07-17T01:03:37.845Z,16.35
2017-07-17T01:04:46.697Z,16.3
2017-07-17T01:05:55.551Z,16.39
2017-07-17T01:07:04.455Z,16.39
2017-07-17T01:08:13.309Z,16.46
2017-07-17T01:09:22.163Z,16.42
2017-07-17T01:10:31.019Z,16.39
2017-07-17T01:11:39.875Z,16.34
2017-07-17T01:12:48.729Z,16.34
2017-07-17T01:13:57.587Z,16.34
2017-07-17T01:15:06.442Z,16.31
2017-07-17T01:16:15.295Z,16.2
2017-07-17T01:17:24.148Z,16.33
2017-07-17T01:18:33.153Z,16.35
2017-07-17T01:19:42.009Z,16.27
2017-07-17T01:20:50.865Z,16.23
2017-07-17T01:21:59.718Z,16.38
2017-07-17T01:23:08.570Z,16.31
2017-07-17T01:24:17.575Z,16.31
2017-07-17T01:25:26.429Z,16.31
2017-07-17T01:26:35.286Z,16.34
2017-07-17T01:27:44.140Z,16.15
2017-07-17T01:28:52.993Z,16.21
2017-07-17T01:30:02.047Z,16.21
2017-07-17T01:31:10.900Z,16.23
2017-07-17T01:32:19.759Z,16.33
2017-07-17T01:33:28.615Z,16.24
2017-07-17T01:34:37.468Z,16.31
2017-07-17T01:35:46.524Z,16.27
2017-07-17T01:36:55.379Z,16.24
2017-07-17T01:38:04.234Z,16.24
2017-07-17T01:39:13.091Z,16.24
2017-07-17T01:40:21.947Z,16.11
2017-07-17T01:41:30.855Z,16.14
2017-07-17T01:42:39.708Z,16.15
2017-07-17T01:43:48.563Z,16.24
2017-07-17T01:44:57.421Z,16.25
2017-07-17T01:46:06.272Z,16.15
2017-07-17T01:47:15.231Z,16.25
2017-07-17T01:48:24.083Z,16.21
2017-07-17T01:49:32.939Z,16.15
2017-07-17T01:50:41.792Z,16.21
2017-07-17T01:51:50.645Z,16.2
2017-07-17T01:52:59.801Z,16.23
2017-07-17T01:54:08.658Z,16.28
2017-07-17T01:55:17.512Z,16.25
2017-07-17T01:56:26.367Z,16.24
2017-07-17T01:57:35.221Z,16.21
2017-07-17T01:58:44.126Z,16.24
2017-07-17T01:59:52.983Z,16.2
2017-07-17T02:01:01.838Z,16.24
2017-07-17T02:02:10.696Z,16.2
2017-07-17T02:03:19.549Z,16.17
2017-07-17T02:04:28.451Z,16.15
2017-07-17T02:05:37.307Z,16.08
2017-07-17T02:06:46.160Z,16.09
2017-07-17T02:07:55.058Z,16.17
2017-07-17T02:09:03.871Z,16.09
2017-07-17T02:10:13.024Z,16.17
2017-07-17T02:11:21.879Z,16.09
2017-07-17T02:12:30.733Z,16.17
2017-07-17T02:13:39.588Z,16.15
2017-07-17T02:14:48.443Z,16.08
2017-07-17T02:15:57.299Z,16.04
2017-07-17T02:17:06.154Z,16.01
2017-07-17T02:18:15.010Z,16.08
2017-07-17T02:19:23.866Z,16.05
2017-07-17T02:20:32.721Z,16.05
2017-07-17T02:21:41.673Z,16
2017-07-17T02:22:50.526Z,16.04
2017-07-17T02:23:59.383Z,15.96
2017-07-17T02:25:08.237Z,15.93
2017-07-17T02:26:17.091Z,15.96
2017-07-17T02:27:25.994Z,15.87
2017-07-17T02:28:34.850Z,15.87
2017-07-17T02:29:43.707Z,15.86
2017-07-17T02:30:52.562Z,15.84
2017-07-17T02:32:01.415Z,15.67
2017-07-17T02:33:10.471Z,15.72
2017-07-17T02:34:19.328Z,15.68
2017-07-17T02:35:28.182Z,15.64
2017-07-17T02:36:37.040Z,15.64
2017-07-17T02:37:45.887Z,15.57
2017-07-17T02:38:54.990Z,15.56
2017-07-17T02:40:03.849Z,15.49
2017-07-17T02:41:12.697Z,15.36
2017-07-17T02:42:21.601Z,15.43
2017-07-17T02:43:30.453Z,15.38
2017-07-17T02:44:39.559Z,15.39
2017-07-17T02:45:48.413Z,15.41
2017-07-17T02:46:57.268Z,15.29
2017-07-17T02:48:06.121Z,15.32
2017-07-17T02:49:14.974Z,15.29
2017-07-17T02:50:23.977Z,15.25
2017-07-17T02:51:32.832Z,15.25
2017-07-17T02:52:41.686Z,15.25
2017-07-17T02:53:50.542Z,15.19
2017-07-17T02:54:59.399Z,15.35
2017-07-17T02:56:08.405Z,15.28
2017-07-17T02:57:17.257Z,15.25
2017-07-17T02:58:26.109Z,15.27
2017-07-17T02:59:34.963Z,15.25
2017-07-17T03:00:43.816Z,15.25
2017-07-17T03:01:52.723Z,15.29
2017-07-17T03:03:01.574Z,15.25
2017-07-17T03:04:10.427Z,15.21
2017-07-17T03:05:19.281Z,15.32
2017-07-17T03:06:28.136Z,15.27
2017-07-17T03:07:37.391Z,15.25
2017-07-17T03:08:46.245Z,15.13
2017-07-17T03:09:55.096Z,15.14
2017-07-17T03:11:03.953Z,15.14
2017-07-17T03:12:12.808Z,15.19
2017-07-17T03:13:21.761Z,15.01
2017-07-17T03:14:30.614Z,14.95
2017-07-17T03:15:39.468Z,15.02
2017-07-17T03:16:48.323Z,14.99
2017-07-17T03:17:57.175Z,14.95
2017-07-17T03:19:06.077Z,14.96
2017-07-17T03:20:14.933Z,14.94
2017-07-17T03:21:23.791Z,14.89
2017-07-17T03:22:32.645Z,14.95
2017-07-17T03:23:41.497Z,14.88
2017-07-17T03:24:50.350Z,14.94
2017-07-17T03:25:59.202Z,14.89
2017-07-17T03:27:08.055Z,14.81
2017-07-17T03:28:16.912Z,14.72
2017-07-17T03:29:25.763Z,14.73
2017-07-17T03:30:34.717Z,14.64
2017-07-17T03:31:43.571Z,14.69
2017-07-17T03:32:52.426Z,14.84
2017-07-17T03:34:01.278Z,14.69
2017-07-17T03:35:10.134Z,14.65
2017-07-17T03:36:19.140Z,14.65
2017-07-17T03:37:27.991Z,14.72
2017-07-17T03:38:36.846Z,14.64
2017-07-17T03:39:45.699Z,14.73
2017-07-17T03:40:54.552Z,14.62
2017-07-17T03:42:03.554Z,14.6
2017-07-17T03:43:12.405Z,14.61
2017-07-17T03:44:21.259Z,14.55
2017-07-17T03:45:30.113Z,14.55
2017-07-17T03:46:38.968Z,14.52
2017-07-17T03:47:47.921Z,14.65
2017-07-17T03:48:56.775Z,14.64
2017-07-17T03:50:05.628Z,14.69
2017-07-17T03:51:14.480Z,14.65
2017-07-17T03:52:23.334Z,14.61
2017-07-17T03:53:32.238Z,14.68
2017-07-17T03:54:41.089Z,14.61
2017-07-17T03:55:49.945Z,14.61
2017-07-17T03:56:58.798Z,14.64
2017-07-17T03:58:07.653Z,14.7
2017-07-17T03:59:16.807Z,14.73
2017-07-17T04:00:25.660Z,14.61
2017-07-17T04:01:34.512Z,14.62
2017-07-17T04:02:43.365Z,14.7
2017-07-17T04:03:52.217Z,14.64
2017-07-17T04:05:01.121Z,14.64
2017-07-17T04:06:09.977Z,14.64
2017-07-17T04:07:18.831Z,14.64
2017-07-17T04:08:27.685Z,14.68
2017-07-17T04:09:36.540Z,14.54
2017-07-17T04:10:45.392Z,14.47
2017-07-17T04:11:54.247Z,14.6
2017-07-17T04:13:03.103Z,14.47
2017-07-17T04:14:11.956Z,14.52
2017-07-17T04:15:20.809Z,14.58
2017-07-17T04:16:29.913Z,14.6
2017-07-17T04:17:38.768Z,14.57
2017-07-17T04:18:47.625Z,14.5
2017-07-17T04:19:56.478Z,14.58
2017-07-17T04:21:05.332Z,14.54
2017-07-17T04:22:14.234Z,14.57
2017-07-17T04:23:23.088Z,14.54
2017-07-17T04:24:31.944Z,14.54
2017-07-17T04:25:40.799Z,14.52
2017-07-17T04:26:49.653Z,14.47
2017-07-17T04:27:58.506Z,14.45
2017-07-17T04:29:07.357Z,14.39
2017-07-17T04:30:16.210Z,14.51
2017-07-17T04:31:25.063Z,14.5
2017-07-17T04:32:33.917Z,14.45
2017-07-17T04:33:42.921Z,14.47
2017-07-17T04:34:51.776Z,14.43
2017-07-17T04:36:00.631Z,14.52
2017-07-17T04:37:09.485Z,14.45
2017-07-17T04:38:18.337Z,14.57
2017-07-17T04:39:27.342Z,14.54
2017-07-17T04:40:36.194Z,14.58
2017-07-17T04:41:45.050Z,14.6
2017-07-17T04:42:53.903Z,14.51
2017-07-17T04:44:02.757Z,14.52
2017-07-17T04:45:11.761Z,14.54
2017-07-17T04:46:20.615Z,14.58
2017-07-17T04:47:29.468Z,14.58
2017-07-17T04:48:38.322Z,14.57
2017-07-17T04:49:47.176Z,14.58
2017-07-17T04:50:56.086Z,14.58
2017-07-17T04:52:04.935Z,14.64
2017-07-17T04:53:13.790Z,14.57
2017-07-17T04:54:22.642Z,14.62
2017-07-17T04:55:31.494Z,14.52
2017-07-17T04:56:40.445Z,14.5
2017-07-17T04:57:49.299Z,14.46
2017-07-17T04:58:58.154Z,14.52
2017-07-17T05:00:07.018Z,14.61
2017-07-17T05:01:15.938Z,14.6
2017-07-17T05:02:24.872Z,14.65
2017-07-17T05:03:33.725Z,14.69
2017-07-17T05:04:42.579Z,14.7
2017-07-17T05:05:51.432Z,14.64
2017-07-17T05:07:00.284Z,14.69
2017-07-17T05:08:09.290Z,14.69
2017-07-17T05:09:18.144Z,14.61
2017-07-17T05:10:26.999Z,14.77
2017-07-17T05:11:35.854Z,14.75
2017-07-17T05:12:44.708Z,14.75
2017-07-17T05:13:53.759Z,14.68
2017-07-17T05:15:02.614Z,14.75
2017-07-17T05:16:11.470Z,14.64
2017-07-17T05:17:20.663Z,14.72
2017-07-17T05:18:29.518Z,14.75
2017-07-17T05:19:38.657Z,14.84
2017-07-17T05:20:47.816Z,14.83
2017-07-17T05:21:56.668Z,14.89
2017-07-17T05:23:05.524Z,14.86
2017-07-17T05:24:14.377Z,14.86
2017-07-17T05:25:23.383Z,14.78
2017-07-17T05:26:32.239Z,14.88
2017-07-17T05:27:41.092Z,14.78
2017-07-17T05:28:49.947Z,14.88
2017-07-17T05:29:58.806Z,14.91
2017-07-17T05:31:07.809Z,15.07
2017-07-17T05:32:16.666Z,14.96
2017-07-17T05:33:25.514Z,15.01
2017-07-17T05:34:34.371Z,14.98
2017-07-17T05:35:43.225Z,14.94
2017-07-17T05:36:52.380Z,14.92
2017-07-17T05:38:01.235Z,14.94
2017-07-17T05:39:10.090Z,14.94
2017-07-17T05:40:18.944Z,14.96
2017-07-17T05:41:27.799Z,14.98
2017-07-17T05:42:36.753Z,15.06
2017-07-17T05:43:45.609Z,15.01
2017-07-17T05:44:54.463Z,15.09
2017-07-17T05:46:03.320Z,15.09
2017-07-17T05:47:12.180Z,15.11
2017-07-17T05:48:21.031Z,15.09
2017-07-17T05:49:29.887Z,15.19
2017-07-17T05:50:38.740Z,15.07
2017-07-17T05:51:47.594Z,15.25
2017-07-17T05:52:56.447Z,15.14
2017-07-17T05:54:05.302Z,15.19
2017-07-17T05:55:14.157Z,15.21
2017-07-17T05:56:23.011Z,15.25
2017-07-17T05:57:31.867Z,15.28
2017-07-17T05:58:40.724Z,15.29
2017-07-17T05:59:49.580Z,15.28
2017-07-17T06:00:58.434Z,15.29
2017-07-17T06:02:07.622Z,15.28
2017-07-17T06:03:16.478Z,15.27
2017-07-17T06:04:25.332Z,15.25
2017-07-17T06:05:34.184Z,15.25
2017-07-17T06:06:43.038Z,15.28
2017-07-17T06:07:51.916Z,15.28
2017-07-17T06:09:00.772Z,15.25
2017-07-17T06:10:09.626Z,15.27
2017-07-17T06:11:18.482Z,15.32
2017-07-17T06:12:27.337Z,15.27
2017-07-17T06:13:36.191Z,15.28
2017-07-17T06:14:45.043Z,15.31
2017-07-17T06:15:53.896Z,15.35
2017-07-17T06:17:02.759Z,15.46
2017-07-17T06:18:11.616Z,15.51
2017-07-17T06:19:20.473Z,15.46
2017-07-17T06:20:29.327Z,15.43
2017-07-17T06:21:38.182Z,15.39
2017-07-17T06:22:47.038Z,15.46
2017-07-17T06:23:55.893Z,15.49
2017-07-17T06:25:04.747Z,15.35
2017-07-17T06:26:13.602Z,15.34
2017-07-17T06:27:22.456Z,15.5
2017-07-17T06:28:31.310Z,15.56
2017-07-17T06:29:40.503Z,15.5
2017-07-17T06:30:49.511Z,15.6
2017-07-17T06:31:58.366Z,15.57
2017-07-17T06:33:07.222Z,15.71
2017-07-17T06:34:16.076Z,15.82
2017-07-17T06:35:24.930Z,15.83
2017-07-17T06:36:33.834Z,15.86
2017-07-17T06:37:42.696Z,15.92
2017-07-17T06:38:51.555Z,15.84
2017-07-17T06:40:00.474Z,15.92
2017-07-17T06:41:09.330Z,16
2017-07-17T06:42:18.445Z,16.04
2017-07-17T06:43:27.306Z,16.09
2017-07-17T06:44:36.175Z,16.15
2017-07-17T06:45:45.031Z,16.11
2017-07-17T06:46:53.885Z,16.23
2017-07-17T06:48:02.858Z,16.24
2017-07-17T06:49:11.713Z,16.24
2017-07-17T06:50:20.569Z,16.23
2017-07-17T06:51:29.423Z,16.25
2017-07-17T06:52:38.277Z,16.31
2017-07-17T06:53:47.284Z,16.28
2017-07-17T06:54:56.139Z,16.27
2017-07-17T06:56:04.994Z,16.27
2017-07-17T06:57:13.850Z,16.39
2017-07-17T06:58:22.704Z,16.43
2017-07-17T06:59:31.559Z,16.56
2017-07-17T07:00:40.418Z,16.58
2017-07-17T07:01:49.280Z,16.66
2017-07-17T07:02:58.154Z,16.75
2017-07-17T07:04:07.005Z,16.7
2017-07-17T07:05:15.910Z,16.75
2017-07-17T07:06:24.763Z,16.7
2017-07-17T07:07:33.621Z,16.7
2017-07-17T07:08:42.479Z,16.93
2017-07-17T07:09:51.335Z,16.86
2017-07-17T07:11:00.341Z,16.83
2017-07-17T07:12:09.199Z,16.76
2017-07-17T07:13:18.056Z,16.73
2017-07-17T07:14:26.911Z,16.81
2017-07-17T07:15:35.773Z,16.75
2017-07-17T07:16:44.627Z,16.82
2017-07-17T07:17:53.483Z,16.81
2017-07-17T07:19:02.342Z,16.75
2017-07-17T07:20:11.202Z,16.78
2017-07-17T07:21:20.057Z,16.78
2017-07-17T07:22:29.061Z,16.76
2017-07-17T07:23:37.922Z,16.68
2017-07-17T07:24:46.777Z,16.66
2017-07-17T07:25:55.634Z,16.7
2017-07-17T07:27:04.491Z,16.75
2017-07-17T07:28:13.494Z,16.61
2017-07-17T07:29:22.357Z,16.61
2017-07-17T07:30:31.218Z,16.58
2017-07-17T07:31:40.073Z,16.57
2017-07-17T07:32:48.926Z,16.76
2017-07-17T07:33:58.138Z,16.67
2017-07-17T07:35:06.992Z,16.68
2017-07-17T07:36:15.849Z,16.76
2017-07-17T07:37:24.706Z,16.79
2017-07-17T07:38:33.564Z,16.94
2017-07-17T07:39:42.729Z,16.89
2017-07-17T07:40:51.580Z,16.91
2017-07-17T07:42:00.438Z,16.98
2017-07-17T07:43:09.630Z,16.97
2017-07-17T07:44:18.485Z,16.94
2017-07-17T07:45:27.391Z,16.91
2017-07-17T07:46:36.249Z,17.03
2017-07-17T07:47:45.110Z,17
2017-07-17T07:48:53.963Z,17.14
2017-07-17T07:50:02.846Z,17.08
2017-07-17T07:51:11.924Z,17.16
2017-07-17T07:52:20.782Z,17.26
2017-07-17T07:53:29.648Z,17.25
2017-07-17T07:54:38.519Z,17.36
2017-07-17T07:55:47.388Z,17.4
2017-07-17T07:56:56.404Z,17.55
2017-07-17T07:58:05.284Z,17.51
2017-07-17T07:59:14.143Z,17.54
2017-07-17T08:00:23.003Z,17.56
2017-07-17T08:01:31.864Z,17.49
2017-07-17T08:02:40.822Z,17.7
2017-07-17T08:03:49.693Z,17.78
2017-07-17T08:04:58.554Z,17.63
2017-07-17T08:06:07.412Z,17.74
2017-07-17T08:07:16.272Z,17.81
2017-07-17T08:08:25.332Z,17.95
2017-07-17T08:09:34.213Z,17.92
2017-07-17T08:10:43.091Z,17.87
2017-07-17T08:11:51.949Z,17.87
2017-07-17T08:13:00.817Z,17.82
2017-07-17T08:14:09.931Z,17.71
2017-07-17T08:15:18.797Z,17.74
2017-07-17T08:16:27.658Z,17.78
2017-07-17T08:17:36.529Z,17.75
2017-07-17T08:18:45.527Z,17.66
2017-07-17T08:19:54.832Z,17.72
2017-07-17T08:21:03.691Z,17.81
2017-07-17T08:22:12.568Z,17.78
2017-07-17T08:23:21.427Z,17.92
2017-07-17T08:24:30.286Z,17.87
2017-07-17T08:25:39.296Z,17.9
2017-07-17T08:26:48.205Z,17.87
2017-07-17T08:27:57.091Z,18.03
2017-07-17T08:29:05.976Z,18.08
2017-07-17T08:30:14.832Z,18.11
2017-07-17T08:31:23.846Z,18.12
2017-07-17T08:32:32.707Z,18.14
2017-07-17T08:33:41.568Z,18.21
2017-07-17T08:34:50.427Z,18.27
2017-07-17T08:35:59.289Z,18.26
2017-07-17T08:37:08.312Z,18.18
2017-07-17T08:38:17.178Z,18.21
2017-07-17T08:39:26.056Z,18.21
2017-07-17T08:40:34.907Z,18.07
2017-07-17T08:41:43.764Z,18.05
2017-07-17T08:42:52.921Z,17.99
2017-07-17T08:44:01.781Z,17.95
2017-07-17T08:45:10.642Z,18.03
2017-07-17T08:46:19.499Z,18.11
2017-07-17T08:47:28.360Z,18.05
2017-07-17T08:48:37.367Z,18.03
2017-07-17T08:49:46.226Z,18.11
2017-07-17T08:50:55.083Z,18.25
2017-07-17T08:52:03.941Z,18.12
2017-07-17T08:53:13.133Z,18.25
2017-07-17T08:54:22.192Z,18.17
2017-07-17T08:55:31.050Z,18.3
2017-07-17T08:56:39.910Z,18.27
2017-07-17T08:57:48.768Z,18.3
2017-07-17T08:58:57.624Z,18.36
2017-07-17T09:00:06.631Z,18.33
2017-07-17T09:01:15.489Z,18.3
2017-07-17T09:02:24.347Z,18.33
2017-07-17T09:03:33.236Z,18.39
2017-07-17T09:04:42.108Z,18.52
2017-07-17T09:05:51.269Z,18.5
2017-07-17T09:07:00.128Z,18.57
2017-07-17T09:08:08.990Z,18.48
2017-07-17T09:09:17.851Z,18.54
2017-07-17T09:10:26.721Z,18.65
2017-07-17T09:11:35.727Z,18.63
2017-07-17T09:12:44.593Z,18.69
2017-07-17T09:13:53.451Z,18.62
2017-07-17T09:15:02.312Z,18.67
2017-07-17T09:16:11.174Z,18.63
2017-07-17T09:17:20.183Z,18.54
2017-07-17T09:18:29.061Z,18.52
2017-07-17T09:19:37.922Z,18.62
2017-07-17T09:20:46.794Z,18.57
2017-07-17T09:21:55.663Z,18.58
2017-07-17T09:23:04.650Z,18.52
2017-07-17T09:24:13.512Z,18.54
2017-07-17T09:25:22.374Z,18.65
2017-07-17T09:26:31.234Z,18.72
2017-07-17T09:27:40.117Z,18.72
2017-07-17T09:28:49.128Z,18.67
2017-07-17T09:29:57.988Z,18.9
2017-07-17T09:31:06.945Z,18.92
2017-07-17T09:32:15.804Z,18.98
2017-07-17T09:33:24.662Z,18.94
2017-07-17T09:34:33.871Z,19.08
2017-07-17T09:35:42.732Z,19.04
2017-07-17T09:36:51.591Z,19.07
2017-07-17T09:38:00.469Z,19.07
2017-07-17T09:39:09.326Z,19.11
2017-07-17T09:40:18.235Z,18.91
2017-07-17T09:41:27.100Z,18.9
2017-07-17T09:42:35.958Z,18.87
2017-07-17T09:43:44.817Z,18.95
2017-07-17T09:44:53.673Z,18.88
2017-07-17T09:46:02.581Z,18.95
2017-07-17T09:47:11.441Z,18.95
2017-07-17T09:48:20.634Z,18.91
2017-07-17T09:49:30.077Z,19.08
2017-07-17T09:50:39.303Z,19.26
2017-07-17T09:51:48.598Z,19.31
2017-07-17T09:52:57.477Z,19.36
2017-07-17T09:54:06.335Z,19.31
2017-07-17T09:55:15.854Z,19.39
2017-07-17T09:56:24.742Z,19.43
2017-07-17T09:57:33.930Z,19.41
2017-07-17T09:58:43.023Z,19.47
2017-07-17T09:59:51.882Z,19.41
2017-07-17T10:01:00.752Z,19.41
2017-07-17T10:02:09.632Z,19.39
2017-07-17T10:03:18.790Z,19.41
2017-07-17T10:04:27.656Z,19.43
2017-07-17T10:05:36.520Z,19.41
2017-07-17T10:06:45.384Z,19.43
2017-07-17T10:07:54.336Z,19.46
2017-07-17T10:09:03.244Z,19.54
2017-07-17T10:10:12.122Z,19.47
2017-07-17T10:11:21.016Z,19.51
2017-07-17T10:12:30.215Z,19.5
2017-07-17T10:13:39.076Z,19.47
2017-07-17T10:14:48.189Z,19.62
2017-07-17T10:15:57.354Z,19.58
2017-07-17T10:17:06.276Z,19.69
2017-07-17T10:18:15.135Z,19.58
2017-07-17T10:19:24.036Z,19.61
2017-07-17T10:20:33.048Z,19.54
2017-07-17T10:21:41.917Z,19.48
2017-07-17T10:22:50.777Z,19.59
2017-07-17T10:23:59.634Z,19.69
2017-07-17T10:25:08.498Z,19.74
2017-07-17T10:26:17.356Z,19.83
2017-07-17T10:27:26.218Z,19.95
2017-07-17T10:28:35.093Z,19.81
2017-07-17T10:29:43.952Z,19.76
2017-07-17T10:30:52.921Z,19.8
2017-07-17T10:32:01.848Z,19.92
2017-07-17T10:33:10.709Z,20.03
2017-07-17T10:34:19.567Z,20.1
2017-07-17T10:35:28.493Z,20.08
2017-07-17T10:36:37.350Z,20.06
2017-07-17T10:37:46.358Z,20.14
2017-07-17T10:38:55.218Z,20.17
2017-07-17T10:40:04.077Z,20.11
2017-07-17T10:41:12.936Z,20.02
2017-07-17T10:42:21.799Z,19.96
2017-07-17T10:43:30.957Z,20.01
2017-07-17T10:44:39.817Z,19.95
2017-07-17T10:45:48.674Z,19.88
2017-07-17T10:46:57.533Z,20.11
2017-07-17T10:48:06.394Z,20.06
2017-07-17T10:49:15.250Z,20.2
2017-07-17T10:50:24.110Z,20.06
2017-07-17T10:51:32.967Z,20.03
2017-07-17T10:52:41.828Z,20.17
2017-07-17T10:53:50.688Z,20.16
2017-07-17T10:54:59.878Z,20.2
2017-07-17T10:56:08.739Z,20.17
2017-07-17T10:57:17.596Z,20.32
2017-07-17T10:58:26.454Z,20.39
2017-07-17T10:59:35.314Z,20.32
2017-07-17T11:00:44.473Z,20.41
2017-07-17T11:01:53.664Z,20.32
2017-07-17T11:03:02.523Z,20.28
2017-07-17T11:04:11.380Z,20.35
2017-07-17T11:05:20.240Z,20.48
2017-07-17T11:06:29.199Z,20.41
2017-07-17T11:07:38.055Z,20.48
2017-07-17T11:08:46.918Z,20.58
2017-07-17T11:09:55.778Z,20.48
2017-07-17T11:11:04.636Z,20.51
2017-07-17T11:12:13.544Z,20.47
2017-07-17T11:13:22.405Z,20.52
2017-07-17T11:14:31.265Z,20.55
2017-07-17T11:15:40.124Z,20.7
2017-07-17T11:16:48.983Z,20.67
2017-07-17T11:17:57.993Z,20.77
2017-07-17T11:19:06.851Z,20.8
2017-07-17T11:20:15.712Z,20.84
2017-07-17T11:21:24.572Z,20.88
2017-07-17T11:22:33.437Z,20.91
2017-07-17T11:23:42.777Z,21.12
2017-07-17T11:24:51.634Z,21.19
2017-07-17T11:26:00.492Z,21.22
2017-07-17T11:27:09.349Z,21.24
2017-07-17T11:28:18.213Z,21.19
2017-07-17T11:29:27.572Z,21.34
2017-07-17T11:30:36.431Z,21.27
2017-07-17T11:31:45.295Z,21.35
2017-07-17T11:32:54.155Z,21.32
2017-07-17T11:34:03.015Z,21.42
2017-07-17T11:35:12.077Z,21.58
2017-07-17T11:36:20.938Z,21.4
2017-07-17T11:37:29.820Z,21.43
2017-07-17T11:38:38.695Z,21.64
2017-07-17T11:39:47.566Z,21.58
2017-07-17T11:40:56.758Z,21.46
2017-07-17T11:42:05.618Z,21.46
2017-07-17T11:43:14.480Z,21.42
2017-07-17T11:44:23.372Z,21.42
2017-07-17T11:45:32.234Z,21.4
2017-07-17T11:56:13.298Z,21.82
2017-07-17T11:58:31.136Z,22.06
2017-07-17T11:59:40.012Z,22.09
2017-07-17T12:00:49.246Z,22.2
2017-07-17T12:01:58.097Z,22.18
2017-07-17T12:03:36.716Z,22.36
2017-07-17T12:04:45.592Z,22.43
2017-07-17T12:05:54.450Z,22.47
2017-07-17T12:07:03.310Z,22.61
2017-07-17T12:08:12.400Z,22.49
2017-07-17T12:09:21.328Z,22.47
2017-07-17T12:10:30.635Z,22.36
2017-07-17T12:11:39.507Z,22.22
2017-07-17T12:12:48.363Z,22.1
2017-07-17T12:13:57.416Z,22.05
2017-07-17T12:15:06.271Z,22.07
2017-07-17T12:16:15.465Z,22.05
2017-07-17T12:17:24.318Z,21.96
2017-07-17T12:18:33.234Z,22.03
2017-07-17T12:19:42.236Z,21.74
2017-07-17T12:20:51.090Z,21.82
2017-07-17T12:21:59.941Z,21.77
2017-07-17T12:23:08.790Z,21.84
2017-07-17T12:24:17.640Z,22.02
2017-07-17T12:25:26.643Z,22.31
2017-07-17T12:26:35.497Z,22.49
2017-07-17T12:27:44.348Z,22.4
2017-07-17T12:28:53.553Z,22.45
2017-07-17T12:30:02.406Z,22.25
2017-07-17T12:31:11.306Z,22.33
2017-07-17T12:32:20.161Z,22.33
2017-07-17T12:33:29.017Z,22.35
2017-07-17T12:34:37.870Z,22.46
2017-07-17T12:35:46.724Z,22.65
2017-07-17T12:36:55.579Z,22.73
2017-07-17T12:38:04.436Z,22.75
2017-07-17T12:39:13.636Z,22.72
2017-07-17T12:40:22.487Z,22.72
2017-07-17T12:41:31.339Z,22.62
2017-07-17T12:42:40.290Z,22.64
2017-07-17T12:43:49.144Z,22.75
2017-07-17T12:44:58.337Z,23.01
2017-07-17T12:46:07.193Z,23
2017-07-17T12:47:16.045Z,23.23
2017-07-17T12:48:25.286Z,23.38
2017-07-17T12:49:34.140Z,23.47
2017-07-17T12:50:42.997Z,23.6
2017-07-17T12:51:51.854Z,23.75
2017-07-17T12:53:00.714Z,23.95
2017-07-17T12:54:09.724Z,23.94
2017-07-17T12:55:18.581Z,23.69
2017-07-17T12:56:27.440Z,23.48
2017-07-17T12:57:36.631Z,23.22
2017-07-17T12:58:45.488Z,23.19
2017-07-17T12:59:54.501Z,23.25
2017-07-17T13:01:03.686Z,23.25
2017-07-17T13:02:12.543Z,23.25
2017-07-17T13:03:21.399Z,23.32
2017-07-17T13:04:30.257Z,23.58
2017-07-17T13:05:39.264Z,23.53
2017-07-17T13:06:48.121Z,23.65
2017-07-17T13:07:56.978Z,23.61
2017-07-17T13:09:05.836Z,23.6
2017-07-17T13:10:14.696Z,23.63
2017-07-17T13:11:23.952Z,23.61
2017-07-17T13:12:32.809Z,23.6
2017-07-17T13:13:41.665Z,23.65
2017-07-17T13:14:50.522Z,23.76
2017-07-17T13:15:59.378Z,24
2017-07-17T13:17:08.639Z,24.05
2017-07-17T13:18:17.497Z,24.39
2017-07-17T13:19:26.354Z,24.42
2017-07-17T13:20:35.552Z,24.27
2017-07-17T13:21:44.743Z,24.13
2017-07-17T13:22:53.803Z,24.08
2017-07-17T13:24:02.998Z,23.97
2017-07-17T13:25:11.872Z,23.88
2017-07-17T13:26:20.712Z,23.76
2017-07-17T13:27:29.568Z,23.75
2017-07-17T13:28:38.808Z,23.68
2017-07-17T13:29:47.661Z,23.6
2017-07-17T13:30:56.520Z,23.55
2017-07-17T13:32:05.376Z,23.5
2017-07-17T13:33:14.233Z,23.57
2017-07-17T13:34:23.241Z,23.51
2017-07-17T13:35:32.098Z,23.33
2017-07-17T13:36:40.953Z,23.33
2017-07-17T13:37:49.809Z,23.36
2017-07-17T13:38:58.663Z,23.36
2017-07-17T13:40:07.520Z,23.48
2017-07-17T13:41:16.370Z,23.5
2017-07-17T13:42:25.224Z,23.51
2017-07-17T13:43:34.090Z,23.53
2017-07-17T13:44:42.953Z,23.5
2017-07-17T13:45:51.962Z,23.51
2017-07-17T13:47:00.819Z,23.47
2017-07-17T13:48:09.702Z,23.47
2017-07-17T13:49:18.555Z,23.36
2017-07-17T13:50:27.772Z,23.38
2017-07-17T13:51:36.793Z,23.38
2017-07-17T13:52:45.647Z,23.54
2017-07-17T13:53:54.852Z,23.4
2017-07-17T13:55:05.060Z,23.23
2017-07-17T13:56:15.049Z,23.33
2017-07-17T13:57:24.968Z,23.31
2017-07-17T13:58:34.514Z,23.36
2017-07-17T13:59:44.057Z,23.35
2017-07-17T14:00:53.602Z,23.31
2017-07-17T14:02:03.478Z,23.38
2017-07-17T14:03:13.501Z,23.22
2017-07-17T14:04:22.731Z,23.43
2017-07-17T14:05:32.286Z,23.38
2017-07-17T14:06:42.150Z,23.5
2017-07-17T14:07:51.692Z,23.55
2017-07-17T14:09:01.711Z,23.65
2017-07-17T14:10:11.584Z,23.51
2017-07-17T14:11:21.460Z,23.58
2017-07-17T14:12:30.680Z,23.6
2017-07-17T14:13:40.562Z,23.35
2017-07-17T14:14:50.008Z,23.33
2017-07-17T14:15:59.227Z,23.36
2017-07-17T14:17:09.437Z,23.22
2017-07-17T14:18:18.996Z,23.32
2017-07-17T14:19:28.542Z,23.31
2017-07-17T14:20:38.240Z,23.35
2017-07-17T14:21:47.133Z,23.31
2017-07-17T14:22:57.338Z,23.36
2017-07-17T14:24:06.892Z,23.28
2017-07-17T14:25:16.451Z,23.33
2017-07-17T14:26:26.233Z,23.33
2017-07-17T14:27:35.800Z,23.42
2017-07-17T14:28:45.346Z,23.51
2017-07-17T14:29:54.571Z,23.5
2017-07-17T14:31:05.082Z,23.55
2017-07-17T14:32:14.590Z,23.76
2017-07-17T14:33:24.470Z,23.88
2017-07-17T14:34:34.049Z,24.02
2017-07-17T14:35:43.608Z,24.09
2017-07-17T14:36:53.818Z,24.34
2017-07-17T14:38:03.578Z,24.55
2017-07-17T14:39:13.126Z,24.87
2017-07-17T14:40:22.361Z,25.03
2017-07-17T14:41:31.909Z,25.28
2017-07-17T14:42:42.101Z,25.32
2017-07-17T14:43:51.424Z,25.35
2017-07-17T14:45:00.979Z,25.51
2017-07-17T14:46:10.537Z,25.77
2017-07-17T14:47:20.103Z,25.88
2017-07-17T14:48:29.006Z,26.1
2017-07-17T14:49:38.536Z,26.09
2017-07-17T14:50:47.772Z,26.29
2017-07-17T14:51:57.325Z,26.57
2017-07-17T14:53:07.211Z,26.7
2017-07-17T14:54:16.775Z,26.76
2017-07-17T14:55:26.480Z,27.03
2017-07-17T14:56:35.713Z,27.03
2017-07-17T14:57:44.620Z,27.03
2017-07-17T14:58:53.852Z,27.1
2017-07-17T15:00:03.410Z,27.17
2017-07-17T15:01:13.823Z,27.13
2017-07-17T15:02:23.715Z,27.43